sensor_id;sensor_type;location;lat;lon;timestamp;temperature;humidity
11093;DHT22;5600;50.864;6.102;2023-12-14T00:00:41;8.00;99.90
11093;DHT22;5600;50.864;6.102;2023-12-14T00:03:42;8.00;99.90
11093;DHT22;5600;50.864;6.102;2023-12-14T00:06:44;8.00;99.90
11093;DHT22;5600;50.864;6.102;2023-12-14T00:09:45;8.10;99.90
11093;DHT22;5600;50.864;6.102;2023-12-14T00:12:46;8.00;99.90
11093;DHT22;5600;50.864;6.102;2023-12-14T00:15:47;7.90;99.90
11093;DHT22;5600;50.864;6.102;2023-12-14T00:18:49;7.90;99.90
11093;DHT22;5600;50.864;6.102;2023-12-14T00:21:50;7.80;99.90
11093;DHT22;5600;50.864;6.102;2023-12-14T00:24:51;7.80;99.90
11093;DHT22;5600;50.864;6.102;2023-12-14T00:27:52;7.90;99.90
11093;DHT22;5600;50.864;6.102;2023-12-14T00:30:52;7.90;99.90
11093;DHT22;5600;50.864;6.102;2023-12-14T00:33:53;8.00;99.90
11093;DHT22;5600;50.864;6.102;2023-12-14T00:36:54;8.00;99.90
11093;DHT22;5600;50.864;6.102;2023-12-14T00:39:55;8.10;99.90
11093;DHT22;5600;50.864;6.102;2023-12-14T00:42:55;8.10;99.90
11093;DHT22;5600;50.864;6.102;2023-12-14T00:45:56;8.10;99.90
11093;DHT22;5600;50.864;6.102;2023-12-14T00:48:57;8.10;99.90
11093;DHT22;5600;50.864;6.102;2023-12-14T00:51:57;8.10;99.90
11093;DHT22;5600;50.864;6.102;2023-12-14T00:54:59;8.10;99.90
11093;DHT22;5600;50.864;6.102;2023-12-14T00:57:59;8.20;99.90
11093;DHT22;5600;50.864;6.102;2023-12-14T01:01:00;8.10;99.90
11093;DHT22;5600;50.864;6.102;2023-12-14T01:04:01;8.00;99.90
11093;DHT22;5600;50.864;6.102;2023-12-14T01:07:01;8.00;99.90
11093;DHT22;5600;50.864;6.102;2023-12-14T01:10:03;8.00;99.90
11093;DHT22;5600;50.864;6.102;2023-12-14T01:13:05;8.00;99.90
11093;DHT22;5600;50.864;6.102;2023-12-14T01:16:06;8.00;99.90
11093;DHT22;5600;50.864;6.102;2023-12-14T01:19:07;8.00;99.90
11093;DHT22;5600;50.864;6.102;2023-12-14T01:22:08;8.00;99.90
11093;DHT22;5600;50.864;6.102;2023-12-14T01:25:08;8.10;99.90
11093;DHT22;5600;50.864;6.102;2023-12-14T01:28:09;8.20;99.90
11093;DHT22;5600;50.864;6.102;2023-12-14T01:31:10;8.20;99.90
11093;DHT22;5600;50.864;6.102;2023-12-14T01:34:11;8.20;99.90
11093;DHT22;5600;50.864;6.102;2023-12-14T01:37:12;8.30;99.90
11093;DHT22;5600;50.864;6.102;2023-12-14T01:40:13;8.20;99.90
11093;DHT22;5600;50.864;6.102;2023-12-14T01:43:14;8.60;99.90
11093;DHT22;5600;50.864;6.102;2023-12-14T01:46:15;8.30;99.90
11093;DHT22;5600;50.864;6.102;2023-12-14T01:49:17;8.20;99.90
11093;DHT22;5600;50.864;6.102;2023-12-14T01:52:17;8.20;99.90
11093;DHT22;5600;50.864;6.102;2023-12-14T01:55:18;8.20;99.90
11093;DHT22;5600;50.864;6.102;2023-12-14T01:58:20;8.20;99.90
11093;DHT22;5600;50.864;6.102;2023-12-14T02:01:28;8.10;99.90
11093;DHT22;5600;50.864;6.102;2023-12-14T02:04:35;8.10;99.90
11093;DHT22;5600;50.864;6.102;2023-12-14T02:07:36;8.10;99.90
11093;DHT22;5600;50.864;6.102;2023-12-14T02:10:36;8.10;99.90
11093;DHT22;5600;50.864;6.102;2023-12-14T02:13:37;8.10;99.90
11093;DHT22;5600;50.864;6.102;2023-12-14T02:16:38;8.10;99.90
11093;DHT22;5600;50.864;6.102;2023-12-14T02:19:39;8.20;99.90
11093;DHT22;5600;50.864;6.102;2023-12-14T02:22:55;8.30;99.90
11093;DHT22;5600;50.864;6.102;2023-12-14T02:25:56;8.20;99.90
11093;DHT22;5600;50.864;6.102;2023-12-14T02:28:57;8.30;99.90
11093;DHT22;5600;50.864;6.102;2023-12-14T02:31:58;8.30;99.90
11093;DHT22;5600;50.864;6.102;2023-12-14T02:34:58;8.20;99.90
11093;DHT22;5600;50.864;6.102;2023-12-14T02:37:59;8.20;99.90
11093;DHT22;5600;50.864;6.102;2023-12-14T02:41:00;8.10;99.90
11093;DHT22;5600;50.864;6.102;2023-12-14T02:44:00;8.10;99.90
11093;DHT22;5600;50.864;6.102;2023-12-14T02:47:01;7.90;99.90
11093;DHT22;5600;50.864;6.102;2023-12-14T02:50:02;7.90;99.90
11093;DHT22;5600;50.864;6.102;2023-12-14T02:53:03;7.90;99.90
11093;DHT22;5600;50.864;6.102;2023-12-14T02:56:04;7.90;99.90
11093;DHT22;5600;50.864;6.102;2023-12-14T02:59:05;7.80;99.90
11093;DHT22;5600;50.864;6.102;2023-12-14T03:02:05;7.80;99.90
11093;DHT22;5600;50.864;6.102;2023-12-14T03:05:06;7.70;99.90
11093;DHT22;5600;50.864;6.102;2023-12-14T03:08:07;7.70;99.90
11093;DHT22;5600;50.864;6.102;2023-12-14T03:11:08;7.60;99.90
11093;DHT22;5600;50.864;6.102;2023-12-14T03:14:08;7.50;99.90
11093;DHT22;5600;50.864;6.102;2023-12-14T03:17:09;7.50;99.90
11093;DHT22;5600;50.864;6.102;2023-12-14T03:20:13;7.20;99.90
11093;DHT22;5600;50.864;6.102;2023-12-14T03:23:14;7.50;99.90
11093;DHT22;5600;50.864;6.102;2023-12-14T03:26:15;7.40;99.90
11093;DHT22;5600;50.864;6.102;2023-12-14T03:29:16;7.40;99.90
11093;DHT22;5600;50.864;6.102;2023-12-14T03:32:17;7.30;99.90
11093;DHT22;5600;50.864;6.102;2023-12-14T03:35:18;7.30;99.90
11093;DHT22;5600;50.864;6.102;2023-12-14T03:38:19;7.20;99.90
11093;DHT22;5600;50.864;6.102;2023-12-14T03:41:20;7.20;99.90
11093;DHT22;5600;50.864;6.102;2023-12-14T03:44:21;7.20;99.90
11093;DHT22;5600;50.864;6.102;2023-12-14T03:47:21;7.20;99.90
11093;DHT22;5600;50.864;6.102;2023-12-14T03:50:22;7.20;99.90
11093;DHT22;5600;50.864;6.102;2023-12-14T03:53:23;7.10;99.90
11093;DHT22;5600;50.864;6.102;2023-12-14T03:56:24;7.10;99.90
11093;DHT22;5600;50.864;6.102;2023-12-14T03:59:24;7.00;99.90
11093;DHT22;5600;50.864;6.102;2023-12-14T04:02:25;7.00;99.90
11093;DHT22;5600;50.864;6.102;2023-12-14T04:05:26;7.00;99.90
11093;DHT22;5600;50.864;6.102;2023-12-14T04:08:27;6.90;99.90
11093;DHT22;5600;50.864;6.102;2023-12-14T04:11:27;6.90;99.90
11093;DHT22;5600;50.864;6.102;2023-12-14T04:14:28;6.90;99.90
11093;DHT22;5600;50.864;6.102;2023-12-14T04:17:29;6.80;99.90
11093;DHT22;5600;50.864;6.102;2023-12-14T04:20:30;6.80;99.90
11093;DHT22;5600;50.864;6.102;2023-12-14T04:23:31;6.80;99.90
11093;DHT22;5600;50.864;6.102;2023-12-14T04:26:32;6.90;99.90
11093;DHT22;5600;50.864;6.102;2023-12-14T04:29:33;6.80;99.90
11093;DHT22;5600;50.864;6.102;2023-12-14T04:32:33;6.80;99.90
11093;DHT22;5600;50.864;6.102;2023-12-14T04:35:34;6.80;99.90
11093;DHT22;5600;50.864;6.102;2023-12-14T04:38:37;6.80;99.90
11093;DHT22;5600;50.864;6.102;2023-12-14T04:41:37;6.80;99.90
11093;DHT22;5600;50.864;6.102;2023-12-14T04:44:38;6.80;99.90
11093;DHT22;5600;50.864;6.102;2023-12-14T04:47:39;6.80;99.90
11093;DHT22;5600;50.864;6.102;2023-12-14T04:50:40;6.70;99.90
11093;DHT22;5600;50.864;6.102;2023-12-14T04:53:41;6.70;99.90
11093;DHT22;5600;50.864;6.102;2023-12-14T04:56:41;6.60;99.90
11093;DHT22;5600;50.864;6.102;2023-12-14T04:59:45;6.70;99.90
11093;DHT22;5600;50.864;6.102;2023-12-14T05:02:47;6.70;99.90
11093;DHT22;5600;50.864;6.102;2023-12-14T05:05:48;6.70;99.90
11093;DHT22;5600;50.864;6.102;2023-12-14T05:08:49;6.80;99.90
11093;DHT22;5600;50.864;6.102;2023-12-14T05:11:50;6.70;99.90
11093;DHT22;5600;50.864;6.102;2023-12-14T05:14:52;6.70;99.90
11093;DHT22;5600;50.864;6.102;2023-12-14T05:17:52;6.70;99.90
11093;DHT22;5600;50.864;6.102;2023-12-14T05:20:53;6.70;99.90
11093;DHT22;5600;50.864;6.102;2023-12-14T05:23:54;6.70;99.90
11093;DHT22;5600;50.864;6.102;2023-12-14T05:26:55;6.70;99.90
11093;DHT22;5600;50.864;6.102;2023-12-14T05:29:55;6.70;99.90
11093;DHT22;5600;50.864;6.102;2023-12-14T05:32:56;6.70;99.90
11093;DHT22;5600;50.864;6.102;2023-12-14T05:35:57;6.70;99.90
11093;DHT22;5600;50.864;6.102;2023-12-14T05:38:57;6.60;99.90
11093;DHT22;5600;50.864;6.102;2023-12-14T05:41:58;6.70;99.90
11093;DHT22;5600;50.864;6.102;2023-12-14T05:44:59;6.70;99.90
11093;DHT22;5600;50.864;6.102;2023-12-14T05:48:00;6.70;99.90
11093;DHT22;5600;50.864;6.102;2023-12-14T05:51:02;6.70;99.90
11093;DHT22;5600;50.864;6.102;2023-12-14T05:54:03;6.70;99.90
11093;DHT22;5600;50.864;6.102;2023-12-14T05:57:04;6.70;99.90
11093;DHT22;5600;50.864;6.102;2023-12-14T06:00:05;6.70;99.90
11093;DHT22;5600;50.864;6.102;2023-12-14T06:03:07;6.60;99.90
11093;DHT22;5600;50.864;6.102;2023-12-14T06:06:08;6.70;99.90
11093;DHT22;5600;50.864;6.102;2023-12-14T06:09:09;6.70;99.90
11093;DHT22;5600;50.864;6.102;2023-12-14T06:12:10;6.50;99.90
11093;DHT22;5600;50.864;6.102;2023-12-14T06:15:10;6.50;99.90
11093;DHT22;5600;50.864;6.102;2023-12-14T06:18:11;6.50;99.90
11093;DHT22;5600;50.864;6.102;2023-12-14T06:21:12;6.50;99.90
11093;DHT22;5600;50.864;6.102;2023-12-14T06:24:14;6.50;99.90
11093;DHT22;5600;50.864;6.102;2023-12-14T06:27:15;6.50;99.90
11093;DHT22;5600;50.864;6.102;2023-12-14T06:30:15;6.50;99.90
11093;DHT22;5600;50.864;6.102;2023-12-14T06:33:16;6.50;99.90
11093;DHT22;5600;50.864;6.102;2023-12-14T06:36:17;6.40;99.90
11093;DHT22;5600;50.864;6.102;2023-12-14T06:39:20;6.40;99.90
11093;DHT22;5600;50.864;6.102;2023-12-14T06:42:21;6.30;99.90
11093;DHT22;5600;50.864;6.102;2023-12-14T06:45:22;6.40;99.90
11093;DHT22;5600;50.864;6.102;2023-12-14T06:48:23;6.40;99.90
11093;DHT22;5600;50.864;6.102;2023-12-14T06:51:23;6.40;99.90
11093;DHT22;5600;50.864;6.102;2023-12-14T06:54:24;6.40;99.90
11093;DHT22;5600;50.864;6.102;2023-12-14T06:57:25;6.40;99.90
11093;DHT22;5600;50.864;6.102;2023-12-14T07:00:27;6.40;99.90
11093;DHT22;5600;50.864;6.102;2023-12-14T07:03:28;6.40;99.90
11093;DHT22;5600;50.864;6.102;2023-12-14T07:06:28;6.40;99.90
11093;DHT22;5600;50.864;6.102;2023-12-14T07:09:29;6.30;99.90
11093;DHT22;5600;50.864;6.102;2023-12-14T07:12:30;6.30;99.90
11093;DHT22;5600;50.864;6.102;2023-12-14T07:15:31;6.30;99.90
11093;DHT22;5600;50.864;6.102;2023-12-14T07:18:32;6.30;99.90
11093;DHT22;5600;50.864;6.102;2023-12-14T07:21:33;6.30;99.90
11093;DHT22;5600;50.864;6.102;2023-12-14T07:24:34;6.30;99.90
11093;DHT22;5600;50.864;6.102;2023-12-14T07:27:35;6.30;99.90
11093;DHT22;5600;50.864;6.102;2023-12-14T07:30:35;6.20;99.90
11093;DHT22;5600;50.864;6.102;2023-12-14T07:33:36;6.20;99.90
11093;DHT22;5600;50.864;6.102;2023-12-14T07:36:37;6.30;99.90
11093;DHT22;5600;50.864;6.102;2023-12-14T07:39:38;6.20;99.90
11093;DHT22;5600;50.864;6.102;2023-12-14T07:42:38;6.30;99.90
11093;DHT22;5600;50.864;6.102;2023-12-14T07:45:39;6.20;99.90
11093;DHT22;5600;50.864;6.102;2023-12-14T07:48:40;6.10;99.90
11093;DHT22;5600;50.864;6.102;2023-12-14T07:51:41;6.10;99.90
11093;DHT22;5600;50.864;6.102;2023-12-14T07:54:42;6.10;99.90
11093;DHT22;5600;50.864;6.102;2023-12-14T07:57:43;7.20;99.90
11093;DHT22;5600;50.864;6.102;2023-12-14T08:00:45;6.10;99.90
11093;DHT22;5600;50.864;6.102;2023-12-14T08:03:46;6.10;99.90
11093;DHT22;5600;50.864;6.102;2023-12-14T08:06:46;6.00;99.90
11093;DHT22;5600;50.864;6.102;2023-12-14T08:09:47;6.00;99.90
11093;DHT22;5600;50.864;6.102;2023-12-14T08:12:48;6.00;99.90
11093;DHT22;5600;50.864;6.102;2023-12-14T08:15:49;6.00;99.90
11093;DHT22;5600;50.864;6.102;2023-12-14T08:18:49;6.00;99.90
11093;DHT22;5600;50.864;6.102;2023-12-14T08:21:50;5.90;99.90
11093;DHT22;5600;50.864;6.102;2023-12-14T08:24:51;5.90;99.90
11093;DHT22;5600;50.864;6.102;2023-12-14T08:27:51;5.90;99.90
11093;DHT22;5600;50.864;6.102;2023-12-14T08:30:52;6.40;99.90
11093;DHT22;5600;50.864;6.102;2023-12-14T08:33:53;5.90;99.90
11093;DHT22;5600;50.864;6.102;2023-12-14T08:36:54;6.00;99.90
11093;DHT22;5600;50.864;6.102;2023-12-14T08:39:55;5.90;99.90
11093;DHT22;5600;50.864;6.102;2023-12-14T08:42:56;5.90;99.90
11093;DHT22;5600;50.864;6.102;2023-12-14T08:45:57;5.80;99.90
11093;DHT22;5600;50.864;6.102;2023-12-14T08:48:58;5.80;99.90
11093;DHT22;5600;50.864;6.102;2023-12-14T08:51:59;5.80;99.90
11093;DHT22;5600;50.864;6.102;2023-12-14T08:54:59;5.80;99.90
11093;DHT22;5600;50.864;6.102;2023-12-14T08:58:01;5.80;99.90
11093;DHT22;5600;50.864;6.102;2023-12-14T09:01:02;5.80;99.90
11093;DHT22;5600;50.864;6.102;2023-12-14T09:04:03;5.80;99.90
11093;DHT22;5600;50.864;6.102;2023-12-14T09:07:04;5.80;99.90
11093;DHT22;5600;50.864;6.102;2023-12-14T09:10:05;5.70;99.90
11093;DHT22;5600;50.864;6.102;2023-12-14T09:13:07;5.70;99.90
11093;DHT22;5600;50.864;6.102;2023-12-14T09:16:08;5.70;99.90
11093;DHT22;5600;50.864;6.102;2023-12-14T09:19:09;5.80;99.90
11093;DHT22;5600;50.864;6.102;2023-12-14T09:22:10;5.80;99.90
11093;DHT22;5600;50.864;6.102;2023-12-14T09:25:11;5.80;99.90
11093;DHT22;5600;50.864;6.102;2023-12-14T09:28:11;5.80;99.90
11093;DHT22;5600;50.864;6.102;2023-12-14T09:31:12;5.80;99.90
11093;DHT22;5600;50.864;6.102;2023-12-14T09:34:13;5.80;99.90
11093;DHT22;5600;50.864;6.102;2023-12-14T09:37:14;5.80;99.90
11093;DHT22;5600;50.864;6.102;2023-12-14T09:40:15;5.80;99.90
11093;DHT22;5600;50.864;6.102;2023-12-14T09:43:17;5.80;99.90
11093;DHT22;5600;50.864;6.102;2023-12-14T09:46:18;5.80;99.90
11093;DHT22;5600;50.864;6.102;2023-12-14T09:49:21;5.80;99.90
11093;DHT22;5600;50.864;6.102;2023-12-14T09:52:24;5.80;99.90
11093;DHT22;5600;50.864;6.102;2023-12-14T09:55:24;5.90;99.90
11093;DHT22;5600;50.864;6.102;2023-12-14T09:58:25;5.90;99.90
11093;DHT22;5600;50.864;6.102;2023-12-14T10:01:27;5.90;99.90
11093;DHT22;5600;50.864;6.102;2023-12-14T10:04:28;5.90;99.90
11093;DHT22;5600;50.864;6.102;2023-12-14T10:07:32;5.90;99.90
11093;DHT22;5600;50.864;6.102;2023-12-14T10:10:33;5.70;99.90
11093;DHT22;5600;50.864;6.102;2023-12-14T10:13:38;5.80;99.90
11093;DHT22;5600;50.864;6.102;2023-12-14T10:16:39;5.90;99.90
11093;DHT22;5600;50.864;6.102;2023-12-14T10:19:43;5.80;99.90
11093;DHT22;5600;50.864;6.102;2023-12-14T10:22:44;5.70;99.90
11093;DHT22;5600;50.864;6.102;2023-12-14T10:25:46;5.80;99.90
11093;DHT22;5600;50.864;6.102;2023-12-14T10:28:46;5.80;99.90
11093;DHT22;5600;50.864;6.102;2023-12-14T10:31:48;5.80;99.90
11093;DHT22;5600;50.864;6.102;2023-12-14T10:34:49;5.80;99.90
11093;DHT22;5600;50.864;6.102;2023-12-14T10:37:51;5.80;99.90
11093;DHT22;5600;50.864;6.102;2023-12-14T10:40:53;5.90;99.90
11093;DHT22;5600;50.864;6.102;2023-12-14T10:43:56;5.90;99.90
11093;DHT22;5600;50.864;6.102;2023-12-14T10:46:58;5.90;99.90
11093;DHT22;5600;50.864;6.102;2023-12-14T10:50:00;6.00;99.90
11093;DHT22;5600;50.864;6.102;2023-12-14T10:53:02;6.00;99.90
11093;DHT22;5600;50.864;6.102;2023-12-14T10:56:06;5.90;99.90
11093;DHT22;5600;50.864;6.102;2023-12-14T10:59:10;5.90;99.90
11093;DHT22;5600;50.864;6.102;2023-12-14T11:02:11;5.90;99.90
11093;DHT22;5600;50.864;6.102;2023-12-14T11:05:13;5.90;99.90
11093;DHT22;5600;50.864;6.102;2023-12-14T11:08:16;5.90;99.90
11093;DHT22;5600;50.864;6.102;2023-12-14T11:11:18;5.90;99.90
11093;DHT22;5600;50.864;6.102;2023-12-14T11:14:23;6.00;99.90
11093;DHT22;5600;50.864;6.102;2023-12-14T11:17:24;6.10;99.90
11093;DHT22;5600;50.864;6.102;2023-12-14T11:20:25;7.80;99.90
11093;DHT22;5600;50.864;6.102;2023-12-14T11:23:37;6.00;99.90
11093;DHT22;5600;50.864;6.102;2023-12-14T11:26:40;6.00;99.90
11093;DHT22;5600;50.864;6.102;2023-12-14T11:29:41;5.90;99.90
11093;DHT22;5600;50.864;6.102;2023-12-14T11:32:42;5.90;99.90
11093;DHT22;5600;50.864;6.102;2023-12-14T11:35:43;5.90;99.90
11093;DHT22;5600;50.864;6.102;2023-12-14T11:38:44;5.80;99.90
11093;DHT22;5600;50.864;6.102;2023-12-14T11:42:07;5.90;99.90
11093;DHT22;5600;50.864;6.102;2023-12-14T11:45:10;6.00;99.90
11093;DHT22;5600;50.864;6.102;2023-12-14T11:48:12;5.90;99.90
11093;DHT22;5600;50.864;6.102;2023-12-14T11:51:13;5.90;99.90
11093;DHT22;5600;50.864;6.102;2023-12-14T11:54:13;5.90;99.90
11093;DHT22;5600;50.864;6.102;2023-12-14T11:57:16;6.00;99.90
11093;DHT22;5600;50.864;6.102;2023-12-14T12:00:17;6.00;99.90
11093;DHT22;5600;50.864;6.102;2023-12-14T12:03:21;6.00;99.90
11093;DHT22;5600;50.864;6.102;2023-12-14T12:06:26;6.10;99.90
11093;DHT22;5600;50.864;6.102;2023-12-14T12:09:38;6.00;99.90
11093;DHT22;5600;50.864;6.102;2023-12-14T12:12:41;6.00;99.90
11093;DHT22;5600;50.864;6.102;2023-12-14T12:15:42;6.00;99.90
11093;DHT22;5600;50.864;6.102;2023-12-14T12:18:43;5.90;99.90
11093;DHT22;5600;50.864;6.102;2023-12-14T12:21:43;6.00;99.90
11093;DHT22;5600;50.864;6.102;2023-12-14T12:24:44;6.00;99.90
11093;DHT22;5600;50.864;6.102;2023-12-14T12:27:46;6.10;99.90
11093;DHT22;5600;50.864;6.102;2023-12-14T12:30:47;6.10;99.90
11093;DHT22;5600;50.864;6.102;2023-12-14T12:33:48;6.00;99.90
11093;DHT22;5600;50.864;6.102;2023-12-14T12:36:49;6.00;99.90
11093;DHT22;5600;50.864;6.102;2023-12-14T12:39:49;6.00;99.90
11093;DHT22;5600;50.864;6.102;2023-12-14T12:42:51;6.00;99.90
11093;DHT22;5600;50.864;6.102;2023-12-14T12:45:52;6.00;99.90
11093;DHT22;5600;50.864;6.102;2023-12-14T12:48:53;6.00;99.90
11093;DHT22;5600;50.864;6.102;2023-12-14T12:51:53;6.00;99.90
11093;DHT22;5600;50.864;6.102;2023-12-14T12:54:54;6.00;99.90
11093;DHT22;5600;50.864;6.102;2023-12-14T12:57:55;6.00;99.90
11093;DHT22;5600;50.864;6.102;2023-12-14T13:00:55;6.00;99.90
11093;DHT22;5600;50.864;6.102;2023-12-14T13:03:57;6.00;99.90
11093;DHT22;5600;50.864;6.102;2023-12-14T13:06:59;6.00;99.90
11093;DHT22;5600;50.864;6.102;2023-12-14T13:10:03;6.00;99.90
11093;DHT22;5600;50.864;6.102;2023-12-14T13:13:05;5.90;99.90
11093;DHT22;5600;50.864;6.102;2023-12-14T13:16:07;6.00;99.90
11093;DHT22;5600;50.864;6.102;2023-12-14T13:19:08;6.00;99.90
11093;DHT22;5600;50.864;6.102;2023-12-14T13:22:10;6.10;99.90
11093;DHT22;5600;50.864;6.102;2023-12-14T13:25:11;6.10;99.90
11093;DHT22;5600;50.864;6.102;2023-12-14T13:28:12;6.20;99.90
11093;DHT22;5600;50.864;6.102;2023-12-14T13:31:13;6.30;99.90
11093;DHT22;5600;50.864;6.102;2023-12-14T13:34:14;6.30;99.90
11093;DHT22;5600;50.864;6.102;2023-12-14T13:37:15;6.40;99.90
11093;DHT22;5600;50.864;6.102;2023-12-14T13:40:15;6.50;99.90
11093;DHT22;5600;50.864;6.102;2023-12-14T13:43:17;6.50;99.90
11093;DHT22;5600;50.864;6.102;2023-12-14T13:46:18;6.50;99.90
11093;DHT22;5600;50.864;6.102;2023-12-14T13:49:19;6.40;99.90
11093;DHT22;5600;50.864;6.102;2023-12-14T13:52:19;6.40;99.90
11093;DHT22;5600;50.864;6.102;2023-12-14T13:55:21;6.40;99.90
11093;DHT22;5600;50.864;6.102;2023-12-14T13:58:22;6.40;99.90
11093;DHT22;5600;50.864;6.102;2023-12-14T14:01:23;6.30;99.90
11093;DHT22;5600;50.864;6.102;2023-12-14T14:04:25;6.40;99.90
11093;DHT22;5600;50.864;6.102;2023-12-14T14:07:25;6.40;99.90
11093;DHT22;5600;50.864;6.102;2023-12-14T14:10:26;6.30;99.90
11093;DHT22;5600;50.864;6.102;2023-12-14T14:13:28;6.20;99.90
11093;DHT22;5600;50.864;6.102;2023-12-14T14:16:29;6.20;99.90
11093;DHT22;5600;50.864;6.102;2023-12-14T14:19:31;6.20;99.90
11093;DHT22;5600;50.864;6.102;2023-12-14T14:22:33;6.20;99.90
11093;DHT22;5600;50.864;6.102;2023-12-14T14:25:34;6.10;99.90
11093;DHT22;5600;50.864;6.102;2023-12-14T14:28:35;6.10;99.90
11093;DHT22;5600;50.864;6.102;2023-12-14T14:31:36;6.10;99.90
11093;DHT22;5600;50.864;6.102;2023-12-14T14:34:36;6.00;99.90
11093;DHT22;5600;50.864;6.102;2023-12-14T14:37:37;6.00;99.90
11093;DHT22;5600;50.864;6.102;2023-12-14T14:40:38;6.10;99.90
11093;DHT22;5600;50.864;6.102;2023-12-14T14:43:39;6.10;99.90
11093;DHT22;5600;50.864;6.102;2023-12-14T14:46:40;6.00;99.90
11093;DHT22;5600;50.864;6.102;2023-12-14T14:49:40;6.00;99.90
11093;DHT22;5600;50.864;6.102;2023-12-14T14:52:41;5.90;99.90
11093;DHT22;5600;50.864;6.102;2023-12-14T14:55:42;5.90;99.90
11093;DHT22;5600;50.864;6.102;2023-12-14T14:58:42;5.90;99.90
11093;DHT22;5600;50.864;6.102;2023-12-14T15:01:46;5.90;99.90
11093;DHT22;5600;50.864;6.102;2023-12-14T15:04:47;5.80;99.90
11093;DHT22;5600;50.864;6.102;2023-12-14T15:07:48;5.80;99.90
11093;DHT22;5600;50.864;6.102;2023-12-14T15:10:48;5.80;99.90
11093;DHT22;5600;50.864;6.102;2023-12-14T15:13:49;5.90;99.90
11093;DHT22;5600;50.864;6.102;2023-12-14T15:16:50;5.90;99.90
11093;DHT22;5600;50.864;6.102;2023-12-14T15:19:51;6.00;99.90
11093;DHT22;5600;50.864;6.102;2023-12-14T15:22:52;6.00;99.90
11093;DHT22;5600;50.864;6.102;2023-12-14T15:25:52;6.00;99.90
11093;DHT22;5600;50.864;6.102;2023-12-14T15:28:53;6.00;99.90
11093;DHT22;5600;50.864;6.102;2023-12-14T15:31:54;5.90;99.90
11093;DHT22;5600;50.864;6.102;2023-12-14T15:34:54;5.90;99.90
11093;DHT22;5600;50.864;6.102;2023-12-14T15:37:55;5.90;99.90
11093;DHT22;5600;50.864;6.102;2023-12-14T15:40:56;5.90;99.90
11093;DHT22;5600;50.864;6.102;2023-12-14T15:43:57;5.90;99.90
11093;DHT22;5600;50.864;6.102;2023-12-14T15:46:57;5.90;99.90
11093;DHT22;5600;50.864;6.102;2023-12-14T15:49:59;5.90;99.90
11093;DHT22;5600;50.864;6.102;2023-12-14T15:53:00;5.90;99.90
11093;DHT22;5600;50.864;6.102;2023-12-14T15:56:01;6.00;99.90
11093;DHT22;5600;50.864;6.102;2023-12-14T15:59:01;5.90;99.90
11093;DHT22;5600;50.864;6.102;2023-12-14T16:02:02;5.80;99.90
11093;DHT22;5600;50.864;6.102;2023-12-14T16:05:04;5.80;99.90
11093;DHT22;5600;50.864;6.102;2023-12-14T16:08:05;5.80;99.90
11093;DHT22;5600;50.864;6.102;2023-12-14T16:11:06;5.90;99.90
11093;DHT22;5600;50.864;6.102;2023-12-14T16:14:07;5.90;99.90
11093;DHT22;5600;50.864;6.102;2023-12-14T16:17:08;5.80;99.90
11093;DHT22;5600;50.864;6.102;2023-12-14T16:20:09;5.90;99.90
11093;DHT22;5600;50.864;6.102;2023-12-14T16:23:10;5.80;99.90
11093;DHT22;5600;50.864;6.102;2023-12-14T16:26:11;5.80;99.90
11093;DHT22;5600;50.864;6.102;2023-12-14T16:29:12;5.90;99.90
11093;DHT22;5600;50.864;6.102;2023-12-14T16:32:13;5.80;99.90
11093;DHT22;5600;50.864;6.102;2023-12-14T16:35:13;5.90;99.90
11093;DHT22;5600;50.864;6.102;2023-12-14T16:38:15;5.90;99.90
11093;DHT22;5600;50.864;6.102;2023-12-14T16:41:20;5.90;99.90
11093;DHT22;5600;50.864;6.102;2023-12-14T16:44:21;5.90;99.90
11093;DHT22;5600;50.864;6.102;2023-12-14T16:47:24;5.90;99.90
11093;DHT22;5600;50.864;6.102;2023-12-14T16:50:25;5.90;99.90
11093;DHT22;5600;50.864;6.102;2023-12-14T16:53:25;5.90;99.90
11093;DHT22;5600;50.864;6.102;2023-12-14T16:56:31;6.00;99.90
11093;DHT22;5600;50.864;6.102;2023-12-14T16:59:32;5.90;99.90
11093;DHT22;5600;50.864;6.102;2023-12-14T17:02:33;5.80;99.90
11093;DHT22;5600;50.864;6.102;2023-12-14T17:05:33;5.70;99.90
11093;DHT22;5600;50.864;6.102;2023-12-14T17:08:34;5.70;99.90
11093;DHT22;5600;50.864;6.102;2023-12-14T17:11:35;4.60;99.90
11093;DHT22;5600;50.864;6.102;2023-12-14T17:14:36;5.60;99.90
11093;DHT22;5600;50.864;6.102;2023-12-14T17:17:37;5.60;99.90
11093;DHT22;5600;50.864;6.102;2023-12-14T17:20:37;5.70;99.90
11093;DHT22;5600;50.864;6.102;2023-12-14T17:23:38;5.70;99.90
11093;DHT22;5600;50.864;6.102;2023-12-14T17:26:39;5.70;99.90
11093;DHT22;5600;50.864;6.102;2023-12-14T17:29:40;5.70;99.90
11093;DHT22;5600;50.864;6.102;2023-12-14T17:32:40;5.00;99.90
11093;DHT22;5600;50.864;6.102;2023-12-14T17:35:41;5.70;99.90
11093;DHT22;5600;50.864;6.102;2023-12-14T17:38:43;5.60;99.90
11093;DHT22;5600;50.864;6.102;2023-12-14T17:41:47;5.70;99.90
11093;DHT22;5600;50.864;6.102;2023-12-14T17:44:47;5.70;99.90
11093;DHT22;5600;50.864;6.102;2023-12-14T17:47:48;5.70;99.90
11093;DHT22;5600;50.864;6.102;2023-12-14T17:50:49;5.70;99.90
11093;DHT22;5600;50.864;6.102;2023-12-14T17:53:51;5.70;99.90
11093;DHT22;5600;50.864;6.102;2023-12-14T17:56:51;5.70;99.90
11093;DHT22;5600;50.864;6.102;2023-12-14T17:59:52;5.70;99.90
11093;DHT22;5600;50.864;6.102;2023-12-14T18:02:53;5.70;99.90
11093;DHT22;5600;50.864;6.102;2023-12-14T18:05:54;5.60;99.90
11093;DHT22;5600;50.864;6.102;2023-12-14T18:08:54;5.50;99.90
11093;DHT22;5600;50.864;6.102;2023-12-14T18:11:56;5.30;99.90
11093;DHT22;5600;50.864;6.102;2023-12-14T18:14:56;5.30;99.90
11093;DHT22;5600;50.864;6.102;2023-12-14T18:17:57;5.20;99.90
11093;DHT22;5600;50.864;6.102;2023-12-14T18:20:59;5.30;99.90
11093;DHT22;5600;50.864;6.102;2023-12-14T18:23:59;5.30;99.90
11093;DHT22;5600;50.864;6.102;2023-12-14T18:27:00;5.30;99.90
11093;DHT22;5600;50.864;6.102;2023-12-14T18:30:01;5.20;99.90
11093;DHT22;5600;50.864;6.102;2023-12-14T18:33:02;5.20;99.90
11093;DHT22;5600;50.864;6.102;2023-12-14T18:36:03;5.20;99.90
11093;DHT22;5600;50.864;6.102;2023-12-14T18:39:04;5.10;99.90
11093;DHT22;5600;50.864;6.102;2023-12-14T18:42:05;5.00;99.90
11093;DHT22;5600;50.864;6.102;2023-12-14T18:45:06;5.00;99.90
11093;DHT22;5600;50.864;6.102;2023-12-14T18:48:07;5.00;99.90
11093;DHT22;5600;50.864;6.102;2023-12-14T18:51:08;4.90;99.90
11093;DHT22;5600;50.864;6.102;2023-12-14T18:54:09;4.90;99.90
11093;DHT22;5600;50.864;6.102;2023-12-14T18:57:12;4.80;99.90
11093;DHT22;5600;50.864;6.102;2023-12-14T19:00:14;4.80;99.90
11093;DHT22;5600;50.864;6.102;2023-12-14T19:03:15;4.80;99.90
11093;DHT22;5600;50.864;6.102;2023-12-14T19:06:16;4.80;99.90
11093;DHT22;5600;50.864;6.102;2023-12-14T19:09:17;4.80;99.90
11093;DHT22;5600;50.864;6.102;2023-12-14T19:12:20;4.90;99.90
11093;DHT22;5600;50.864;6.102;2023-12-14T19:15:20;5.00;99.90
11093;DHT22;5600;50.864;6.102;2023-12-14T19:18:21;5.10;99.90
11093;DHT22;5600;50.864;6.102;2023-12-14T19:21:22;5.00;99.90
11093;DHT22;5600;50.864;6.102;2023-12-14T19:24:23;5.00;99.90
11093;DHT22;5600;50.864;6.102;2023-12-14T19:27:25;5.10;99.90
11093;DHT22;5600;50.864;6.102;2023-12-14T19:30:26;5.20;99.90
11093;DHT22;5600;50.864;6.102;2023-12-14T19:33:27;5.30;99.90
11093;DHT22;5600;50.864;6.102;2023-12-14T19:36:27;5.40;99.90
11093;DHT22;5600;50.864;6.102;2023-12-14T19:39:28;5.30;99.90
11093;DHT22;5600;50.864;6.102;2023-12-14T19:42:29;5.40;99.90